createdAt,value
2018-10-09T00:01:59.100Z,13.53
2018-10-09T00:04:27.611Z,11.60
2018-10-09T00:06:56.103Z,10.90
2018-10-09T00:09:24.608Z,11.10
2018-10-09T00:11:53.108Z,10.47
2018-10-09T00:14:21.613Z,9.70
2018-10-09T00:16:50.075Z,10.00
2018-10-09T00:19:18.644Z,9.70
2018-10-09T00:21:47.134Z,10.57
2018-10-09T00:24:15.601Z,12.37
2018-10-09T00:26:44.043Z,9.00
2018-10-09T00:29:12.476Z,11.37
2018-10-09T00:31:40.913Z,14.93
2018-10-09T00:34:09.329Z,18.23
2018-10-09T00:36:37.934Z,19.50
2018-10-09T00:39:07.807Z,11.97
2018-10-09T00:41:36.255Z,13.43
2018-10-09T00:44:04.708Z,15.30
2018-10-09T00:46:33.259Z,12.83
2018-10-09T00:49:01.776Z,13.50
2018-10-09T00:51:30.227Z,16.10
2018-10-09T00:53:58.703Z,15.47
2018-10-09T00:56:27.223Z,15.23
2018-10-09T00:58:55.680Z,14.73
2018-10-09T01:01:24.256Z,17.17
2018-10-09T01:03:52.748Z,17.77
2018-10-09T01:06:21.240Z,13.63
2018-10-09T01:08:49.798Z,16.73
2018-10-09T01:11:18.291Z,20.53
2018-10-09T01:13:46.829Z,16.53
2018-10-09T01:16:15.328Z,14.00
2018-10-09T01:18:43.840Z,17.10
2018-10-09T01:21:12.295Z,14.87
2018-10-09T01:23:40.771Z,13.90
2018-10-09T01:26:09.793Z,15.37
2018-10-09T01:28:38.264Z,11.27
2018-10-09T01:31:06.811Z,13.47
2018-10-09T01:33:35.344Z,9.70
2018-10-09T01:36:03.887Z,15.90
2018-10-09T01:38:32.435Z,14.40
2018-10-09T01:41:00.991Z,14.20
2018-10-09T01:43:29.537Z,15.73
2018-10-09T01:45:58.078Z,8.57
2018-10-09T01:48:26.538Z,11.73
2018-10-09T01:50:55.239Z,11.23
2018-10-09T01:53:23.767Z,16.00
2018-10-09T01:55:52.635Z,14.83
2018-10-09T01:58:21.155Z,13.67
2018-10-09T02:00:49.628Z,14.30
2018-10-09T02:03:18.104Z,21.60
2018-10-09T02:05:46.643Z,16.70
2018-10-09T02:08:15.163Z,16.10
2018-10-09T02:10:43.656Z,20.17
2018-10-09T02:13:12.187Z,22.60
2018-10-09T02:15:40.755Z,21.67
2018-10-09T02:18:09.294Z,21.63
2018-10-09T02:20:37.789Z,19.07
2018-10-09T02:23:06.283Z,22.57
2018-10-09T02:25:34.777Z,26.03
2018-10-09T02:28:03.301Z,18.27
2018-10-09T02:30:31.784Z,22.27
2018-10-09T02:33:00.321Z,24.77
2018-10-09T02:35:29.008Z,30.80
2018-10-09T02:37:57.455Z,18.47
2018-10-09T02:40:25.940Z,26.77
2018-10-09T02:42:54.415Z,30.53
2018-10-09T02:45:22.876Z,22.77
2018-10-09T02:47:51.348Z,23.87
2018-10-09T02:50:19.848Z,24.20
2018-10-09T02:52:48.405Z,21.77
2018-10-09T02:55:16.920Z,19.80
2018-10-09T02:57:45.413Z,22.70
2018-10-09T03:00:30.632Z,23.07
2018-10-09T03:02:59.144Z,20.07
2018-10-09T03:05:27.669Z,24.80
2018-10-09T03:07:56.138Z,23.70
2018-10-09T03:10:24.687Z,28.90
2018-10-09T03:12:53.127Z,27.40
2018-10-09T03:15:21.578Z,24.40
2018-10-09T03:17:50.028Z,20.70
2018-10-09T03:20:18.496Z,23.30
2018-10-09T03:22:46.967Z,27.30
2018-10-09T03:25:15.385Z,22.03
2018-10-09T03:27:43.893Z,22.63
2018-10-09T03:30:12.810Z,20.87
2018-10-09T03:32:41.317Z,24.63
2018-10-09T03:35:09.844Z,25.63
2018-10-09T03:37:38.355Z,33.57
2018-10-09T03:40:06.866Z,27.70
2018-10-09T03:42:35.330Z,36.00
2018-10-09T03:45:03.904Z,26.23
2018-10-09T03:47:32.438Z,27.20
2018-10-09T03:50:00.911Z,23.40
2018-10-09T03:52:29.472Z,40.00
2018-10-09T03:54:57.943Z,25.03
2018-10-09T03:57:26.446Z,26.53
2018-10-09T03:59:54.991Z,29.43
2018-10-09T04:02:23.475Z,25.07
2018-10-09T04:04:51.947Z,21.20
2018-10-09T04:07:20.435Z,24.03
2018-10-09T04:09:49.012Z,30.30
2018-10-09T04:12:17.508Z,40.93
2018-10-09T04:14:46.071Z,32.60
2018-10-09T04:17:14.658Z,34.03
2018-10-09T04:19:43.439Z,54.73
2018-10-09T04:22:16.332Z,58.30
2018-10-09T04:24:44.827Z,47.10
2018-10-09T04:27:13.293Z,62.57
2018-10-09T04:29:41.885Z,37.33
2018-10-09T04:32:11.507Z,41.03
2018-10-09T04:34:41.027Z,34.97
2018-10-09T04:37:10.532Z,47.70
2018-10-09T04:39:40.081Z,47.90
2018-10-09T04:42:09.473Z,56.03
2018-10-09T04:44:39.139Z,51.23
2018-10-09T04:47:08.652Z,47.93
2018-10-09T04:49:37.934Z,44.53
2018-10-09T04:52:07.492Z,44.27
2018-10-09T04:54:37.018Z,47.20
2018-10-09T04:57:07.686Z,57.20
2018-10-09T04:59:37.228Z,47.60
2018-10-09T05:02:06.544Z,46.87
2018-10-09T05:04:35.054Z,53.10
2018-10-09T05:07:04.587Z,48.83
2018-10-09T05:09:33.523Z,65.40
2018-10-09T05:12:03.129Z,56.47
2018-10-09T05:14:32.413Z,47.47
2018-10-09T05:17:01.919Z,48.87
2018-10-09T05:19:31.364Z,62.20
2018-10-09T05:21:59.882Z,42.33
2018-10-09T05:24:29.221Z,51.47
2018-10-09T05:26:58.613Z,55.80
2018-10-09T05:29:27.191Z,47.23
2018-10-09T05:31:55.706Z,53.97
2018-10-09T05:34:24.218Z,79.37
2018-10-09T05:36:52.646Z,66.10
2018-10-09T05:39:21.137Z,43.83
2018-10-09T05:41:49.611Z,45.97
2018-10-09T05:44:18.111Z,58.43
2018-10-09T05:46:46.533Z,77.07
2018-10-09T05:49:15.020Z,58.43
2018-10-09T05:51:43.479Z,59.90
2018-10-09T05:54:11.947Z,87.80
2018-10-09T05:56:40.445Z,59.67
2018-10-09T05:59:08.918Z,62.07
2018-10-09T06:01:37.528Z,73.33
2018-10-09T06:04:05.984Z,87.07
2018-10-09T06:06:34.436Z,60.20
2018-10-09T06:09:02.917Z,64.30
2018-10-09T06:11:31.344Z,65.87
2018-10-09T06:13:59.929Z,70.97
2018-10-09T06:16:28.358Z,77.40
2018-10-09T06:18:56.917Z,85.33
2018-10-09T06:21:25.676Z,99.03
2018-10-09T06:23:54.099Z,96.97
2018-10-09T06:26:22.551Z,117.30
2018-10-09T06:28:51.044Z,99.93
2018-10-09T06:31:19.518Z,106.57
2018-10-09T06:33:48.026Z,109.30
2018-10-09T06:36:16.575Z,176.73
2018-10-09T06:38:45.115Z,147.00
2018-10-09T06:41:13.663Z,115.33
2018-10-09T06:43:43.057Z,116.23
2018-10-09T06:46:15.760Z,133.23
2018-10-09T06:48:44.300Z,128.23
2018-10-09T06:51:12.935Z,130.10
2018-10-09T06:53:41.547Z,106.10
2018-10-09T06:56:10.219Z,108.63
2018-10-09T06:58:38.693Z,109.30
2018-10-09T07:01:07.223Z,111.63
2018-10-09T07:03:35.717Z,129.43
2018-10-09T07:06:04.183Z,163.83
2018-10-09T07:08:32.631Z,180.30
2018-10-09T07:11:01.158Z,162.23
2018-10-09T07:13:29.616Z,145.13
2018-10-09T07:15:58.069Z,155.53
2018-10-09T07:18:26.625Z,146.47
2018-10-09T07:20:55.088Z,177.97
2018-10-09T07:23:23.536Z,167.60
2018-10-09T07:25:51.999Z,243.00
2018-10-09T07:28:20.454Z,173.80
2018-10-09T07:30:48.931Z,200.60
2018-10-09T07:33:17.482Z,133.17
2018-10-09T07:35:45.942Z,204.60
2018-10-09T07:38:14.828Z,217.63
2018-10-09T07:40:43.272Z,266.93
2018-10-09T07:43:11.688Z,214.50
2018-10-09T07:45:40.144Z,229.40
2018-10-09T07:48:08.624Z,271.97
2018-10-09T07:50:37.060Z,270.13
2018-10-09T07:53:05.489Z,215.50
2018-10-09T07:55:33.883Z,227.03
2018-10-09T07:58:02.275Z,315.47
2018-10-09T08:00:30.743Z,199.30
2018-10-09T08:02:59.409Z,218.43
2018-10-09T08:05:27.933Z,168.50
2018-10-09T08:07:56.456Z,200.00
2018-10-09T08:10:24.996Z,195.57
2018-10-09T08:12:53.603Z,187.23
2018-10-09T08:15:21.985Z,222.20
2018-10-09T08:17:50.416Z,145.13
2018-10-09T08:20:18.843Z,145.23
2018-10-09T08:22:47.527Z,162.70
2018-10-09T08:25:15.918Z,136.00
2018-10-09T08:27:44.370Z,127.83
2018-10-09T08:30:13.000Z,141.80
2018-10-09T08:32:41.612Z,130.60
2018-10-09T08:35:10.018Z,113.97
2018-10-09T08:37:38.412Z,76.00
2018-10-09T08:40:06.863Z,66.60
2018-10-09T08:42:35.288Z,54.20
2018-10-09T08:45:03.800Z,42.83
2018-10-09T08:47:32.241Z,40.80
2018-10-09T08:50:00.872Z,33.90
2018-10-09T08:52:29.497Z,28.90
2018-10-09T08:54:58.039Z,30.30
2018-10-09T08:57:26.574Z,27.97
2018-10-09T08:59:54.959Z,28.27
2018-10-09T09:02:23.444Z,20.80
2018-10-09T09:04:52.038Z,22.50
2018-10-09T09:07:20.508Z,18.13
2018-10-09T09:09:49.074Z,22.57
2018-10-09T09:12:17.556Z,21.73
2018-10-09T09:14:46.153Z,21.23
2018-10-09T09:17:14.533Z,15.97
2018-10-09T09:19:43.181Z,17.73
2018-10-09T09:22:11.559Z,15.47
2018-10-09T09:24:39.964Z,21.10
2018-10-09T09:27:08.460Z,15.80
2018-10-09T09:29:36.919Z,15.60
2018-10-09T09:32:05.343Z,14.90
2018-10-09T09:34:33.782Z,14.60
2018-10-09T09:37:02.252Z,11.90
2018-10-09T09:39:30.679Z,10.07
2018-10-09T09:41:59.105Z,20.13
2018-10-09T09:44:27.511Z,19.07
2018-10-09T09:46:56.123Z,11.97
2018-10-09T09:49:24.565Z,10.90
2018-10-09T09:51:53.329Z,10.77
2018-10-09T09:54:21.685Z,14.80
2018-10-09T09:56:50.150Z,16.60
2018-10-09T09:59:18.768Z,10.03
2018-10-09T10:01:47.136Z,8.67
2018-10-09T10:04:15.564Z,10.50
2018-10-09T10:06:44.429Z,10.47
2018-10-09T10:09:13.001Z,11.07
2018-10-09T10:11:41.412Z,8.30
2018-10-09T10:14:10.063Z,11.13
2018-10-09T10:16:38.507Z,10.87
2018-10-09T10:19:07.051Z,10.63
2018-10-09T10:21:35.449Z,6.63
2018-10-09T10:24:03.856Z,17.10
2018-10-09T10:26:32.225Z,8.03
2018-10-09T10:29:00.715Z,6.53
2018-10-09T10:31:29.140Z,7.63
2018-10-09T10:33:57.632Z,6.90
2018-10-09T10:36:26.122Z,8.37
2018-10-09T10:38:54.589Z,10.17
2018-10-09T10:41:23.040Z,5.80
2018-10-09T10:43:51.528Z,5.20
2018-10-09T10:46:19.992Z,8.40
2018-10-09T10:48:58.338Z,5.27
2018-10-09T10:51:27.036Z,8.90
2018-10-09T10:53:55.760Z,8.80
2018-10-09T10:56:24.252Z,6.23
2018-10-09T10:58:52.812Z,5.73
2018-10-09T11:01:22.291Z,5.80
2018-10-09T11:03:50.996Z,5.10
2018-10-09T11:06:19.441Z,6.03
2018-10-09T11:08:48.568Z,10.60
2018-10-09T11:11:17.659Z,6.07
2018-10-09T11:13:46.293Z,6.40
2018-10-09T11:16:14.739Z,6.97
2018-10-09T11:18:43.220Z,5.57
2018-10-09T11:21:11.643Z,8.03
2018-10-09T11:23:40.104Z,15.67
2018-10-09T11:26:08.572Z,4.83
2018-10-09T11:28:37.001Z,9.10
2018-10-09T11:31:05.388Z,5.57
2018-10-09T11:33:33.759Z,10.50
2018-10-09T11:36:02.372Z,5.90
2018-10-09T11:38:30.768Z,8.93
2018-10-09T11:40:59.372Z,9.13
2018-10-09T11:43:27.789Z,11.57
2018-10-09T11:45:56.182Z,15.53
2018-10-09T11:48:24.801Z,8.00
2018-10-09T11:50:53.212Z,8.90
2018-10-09T11:53:21.580Z,5.83
2018-10-09T11:55:49.973Z,11.13
2018-10-09T11:58:18.336Z,10.80
2018-10-09T12:00:48.915Z,11.33
2018-10-09T12:03:17.292Z,7.20
2018-10-09T12:05:45.759Z,12.30
2018-10-09T12:08:14.188Z,6.47
2018-10-09T12:10:42.582Z,4.80
2018-10-09T12:13:10.973Z,11.13
2018-10-09T12:15:39.422Z,7.73
2018-10-09T12:18:08.000Z,8.83
2018-10-09T12:20:36.389Z,5.03
2018-10-09T12:23:04.796Z,6.10
2018-10-09T12:25:33.192Z,7.73
2018-10-09T12:28:01.796Z,8.70
2018-10-09T12:30:30.175Z,8.23
2018-10-09T12:32:58.606Z,8.47
2018-10-09T12:35:26.999Z,6.30
2018-10-09T12:37:55.431Z,5.83
2018-10-09T12:40:23.784Z,7.43
2018-10-09T12:42:52.205Z,13.07
2018-10-09T12:45:20.789Z,7.57
2018-10-09T12:47:49.238Z,6.90
2018-10-09T12:50:17.709Z,9.83
2018-10-09T12:52:46.171Z,6.17
2018-10-09T12:55:14.828Z,10.47
2018-10-09T12:57:43.882Z,7.47
2018-10-09T13:00:12.570Z,9.70
2018-10-09T13:02:41.018Z,7.03
2018-10-09T13:05:09.671Z,8.90
2018-10-09T13:07:38.326Z,8.57
2018-10-09T13:10:06.740Z,7.10
2018-10-09T13:12:35.134Z,12.73
2018-10-09T13:15:03.521Z,8.60
2018-10-09T13:17:32.834Z,8.03
2018-10-09T13:20:02.752Z,7.27
2018-10-09T13:22:31.775Z,9.80
2018-10-09T13:24:59.944Z,8.70
2018-10-09T13:27:28.336Z,8.23
2018-10-09T13:29:59.485Z,7.33
2018-10-09T13:32:28.012Z,5.87
2018-10-09T13:35:00.759Z,6.37
2018-10-09T13:37:29.243Z,8.03
2018-10-09T13:40:00.073Z,6.63
2018-10-09T13:42:28.593Z,6.83
2018-10-09T13:44:58.563Z,8.30
2018-10-09T13:47:27.160Z,12.37
2018-10-09T13:49:59.023Z,4.77
2018-10-09T13:52:28.011Z,5.87
2018-10-09T13:54:56.826Z,5.77
2018-10-09T13:57:25.361Z,6.60
2018-10-09T13:59:54.648Z,10.70
2018-10-09T14:02:23.187Z,5.20
2018-10-09T14:04:54.408Z,10.53
2018-10-09T14:07:23.027Z,14.43
2018-10-09T14:09:51.513Z,11.53
2018-10-09T14:12:21.242Z,8.83
2018-10-09T14:14:49.665Z,5.97
2018-10-09T14:17:22.237Z,14.83
2018-10-09T14:19:50.888Z,5.10
2018-10-09T14:22:20.059Z,6.43
2018-10-09T14:24:50.299Z,5.80
2018-10-09T14:27:18.927Z,13.27
2018-10-09T14:29:50.490Z,8.30
2018-10-09T14:32:19.056Z,5.20
2018-10-09T14:34:50.292Z,6.13
2018-10-09T14:37:18.947Z,7.57
2018-10-09T14:39:51.260Z,5.70
2018-10-09T14:42:20.151Z,8.30
2018-10-09T14:44:50.487Z,10.03
2018-10-09T14:47:19.197Z,9.40
2018-10-09T14:49:48.317Z,8.07
2018-10-09T14:52:16.827Z,7.17
2018-10-09T14:54:49.011Z,7.87
2018-10-09T14:57:17.872Z,6.37
2018-10-09T14:59:46.567Z,9.83
2018-10-09T15:02:15.153Z,7.57
2018-10-09T15:04:45.215Z,11.50
2018-10-09T15:07:13.752Z,8.20
2018-10-09T15:09:44.177Z,11.87
2018-10-09T15:12:12.774Z,13.40
2018-10-09T15:14:41.929Z,10.00
2018-10-09T15:17:10.738Z,11.00
2018-10-09T15:19:43.230Z,11.10
2018-10-09T15:22:11.880Z,14.67
2018-10-09T15:24:40.415Z,14.37
2018-10-09T15:27:08.870Z,14.43
2018-10-09T15:29:39.037Z,20.43
2018-10-09T15:32:07.709Z,14.40
2018-10-09T15:34:36.279Z,13.30
2018-10-09T15:37:06.368Z,22.87
2018-10-09T15:39:35.066Z,12.97
2018-10-09T15:42:05.102Z,14.53
2018-10-09T15:44:34.681Z,20.53
2018-10-09T15:47:03.632Z,19.83
2018-10-09T15:49:34.056Z,14.10
2018-10-09T15:52:02.991Z,15.93
2018-10-09T15:54:31.591Z,17.40
2018-10-09T15:57:02.681Z,17.77
2018-10-09T15:59:31.295Z,14.73
2018-10-09T16:02:02.676Z,14.97
2018-10-09T16:04:31.424Z,15.40
2018-10-09T16:07:02.351Z,14.03
2018-10-09T16:09:31.306Z,14.80
2018-10-09T16:11:59.764Z,19.73
2018-10-09T16:14:28.272Z,17.50
2018-10-09T16:16:59.126Z,21.77
2018-10-09T16:19:30.231Z,17.40
2018-10-09T16:22:01.045Z,19.97
2018-10-09T16:24:31.000Z,19.13
2018-10-09T16:27:01.507Z,18.13
2018-10-09T16:29:31.728Z,17.87
2018-10-09T16:32:00.443Z,17.50
2018-10-09T16:34:29.008Z,20.73
2018-10-09T16:36:57.528Z,26.77
2018-10-09T16:39:27.383Z,21.13
2018-10-09T16:41:57.096Z,20.40
2018-10-09T16:44:25.601Z,19.77
2018-10-09T16:46:54.079Z,21.97
2018-10-09T16:49:24.405Z,23.13
2018-10-09T16:51:57.333Z,21.53
2018-10-09T16:54:27.743Z,18.03
2018-10-09T16:56:56.300Z,23.60
2018-10-09T16:59:24.818Z,22.83
2018-10-09T17:01:55.112Z,21.30
2018-10-09T17:04:23.719Z,23.40
2018-10-09T17:06:52.318Z,21.93
2018-10-09T17:09:21.344Z,22.50
2018-10-09T17:11:50.864Z,19.03
2018-10-09T17:14:19.588Z,18.50
2018-10-09T17:16:48.187Z,23.27
2018-10-09T17:19:18.701Z,35.67
2018-10-09T17:21:47.766Z,21.63
2018-10-09T17:24:16.281Z,24.13
2018-10-09T17:26:46.373Z,21.33
2018-10-09T17:29:17.010Z,22.00
2018-10-09T17:31:45.983Z,24.47
2018-10-09T17:34:15.907Z,24.73
2018-10-09T17:36:45.651Z,25.60
2018-10-09T17:39:15.524Z,35.13
2018-10-09T17:41:45.434Z,29.00
2018-10-09T17:44:15.550Z,27.53
2018-10-09T17:46:44.817Z,26.10
2018-10-09T17:49:13.399Z,22.77
2018-10-09T17:51:41.925Z,22.50
2018-10-09T17:54:10.508Z,20.60
2018-10-09T17:56:40.607Z,26.90
2018-10-09T17:59:11.365Z,26.67
2018-10-09T18:01:41.288Z,25.20
2018-10-09T18:04:11.631Z,27.93
2018-10-09T18:06:41.623Z,28.63
2018-10-09T18:09:12.840Z,28.70
2018-10-09T18:11:43.498Z,26.10
2018-10-09T18:14:13.739Z,28.73
2018-10-09T18:16:44.990Z,25.80
2018-10-09T18:19:17.080Z,23.50
2018-10-09T18:21:47.479Z,31.63
2018-10-09T18:24:17.790Z,25.90
2018-10-09T18:26:47.034Z,24.17
2018-10-09T18:29:17.100Z,30.60
2018-10-09T18:31:52.618Z,30.13
2018-10-09T18:34:21.226Z,26.17
2018-10-09T18:36:52.090Z,24.17
2018-10-09T18:39:22.030Z,30.67
2018-10-09T18:41:52.395Z,25.60
2018-10-09T18:44:22.593Z,25.03
2018-10-09T18:46:52.603Z,33.17
2018-10-09T18:49:23.207Z,47.40
2018-10-09T18:51:53.063Z,30.83
2018-10-09T18:54:23.075Z,30.83
2018-10-09T18:56:51.944Z,35.10
2018-10-09T18:59:20.600Z,30.47
2018-10-09T19:01:54.737Z,30.37
2018-10-09T19:04:25.572Z,42.00
2018-10-09T19:06:55.814Z,36.10
2018-10-09T19:09:26.197Z,30.73
2018-10-09T19:11:55.141Z,35.83
2018-10-09T19:14:23.835Z,38.90
2018-10-09T19:16:52.333Z,30.30
2018-10-09T19:19:21.169Z,34.37
2018-10-09T19:21:49.660Z,35.73
2018-10-09T19:24:18.263Z,36.37
2018-10-09T19:26:46.783Z,39.17
2018-10-09T19:29:15.271Z,28.90
2018-10-09T19:31:43.704Z,40.90
2018-10-09T19:34:12.409Z,30.60
2018-10-09T19:36:41.495Z,33.77
2018-10-09T19:39:11.661Z,37.87
2018-10-09T19:41:40.199Z,39.67
2018-10-09T19:44:08.721Z,32.53
2018-10-09T19:46:37.611Z,36.77
2018-10-09T19:49:06.145Z,38.47
2018-10-09T19:51:36.503Z,36.63
2018-10-09T19:54:05.275Z,32.53
2018-10-09T19:56:33.786Z,37.87
2018-10-09T19:59:04.261Z,31.70
2018-10-09T20:01:34.167Z,38.93
2018-10-09T20:04:02.655Z,46.07
2018-10-09T20:06:32.990Z,39.23
2018-10-09T20:09:03.395Z,34.97
2018-10-09T20:11:32.090Z,35.50
2018-10-09T20:14:01.119Z,30.97
2018-10-09T20:16:29.640Z,31.20
2018-10-09T20:18:58.047Z,40.90
2018-10-09T20:21:29.877Z,31.33
2018-10-09T20:23:59.838Z,30.57
2018-10-09T20:26:28.618Z,32.50
2018-10-09T20:28:57.173Z,38.97
2018-10-09T20:31:25.657Z,27.40
2018-10-09T20:33:54.174Z,26.93
2018-10-09T20:36:22.904Z,28.40
2018-10-09T20:38:51.369Z,28.63
2018-10-09T20:41:19.816Z,35.60
2018-10-09T20:43:48.310Z,31.40
2018-10-09T20:46:16.875Z,37.77
2018-10-09T20:48:45.616Z,34.93
2018-10-09T20:51:14.305Z,31.63
2018-10-09T20:53:43.068Z,37.33
2018-10-09T20:56:11.611Z,29.10
2018-10-09T20:58:40.187Z,37.13
2018-10-09T21:01:08.652Z,32.93
2018-10-09T21:03:37.085Z,32.80
2018-10-09T21:06:05.710Z,32.23
2018-10-09T21:08:34.519Z,44.90
2018-10-09T21:11:03.299Z,32.23
2018-10-09T21:13:31.780Z,32.07
2018-10-09T21:16:00.271Z,33.00
2018-10-09T21:18:28.820Z,30.30
2018-10-09T21:20:57.341Z,32.47
2018-10-09T21:23:25.849Z,28.80
2018-10-09T21:25:54.291Z,30.60
2018-10-09T21:28:22.809Z,30.23
2018-10-09T21:30:51.281Z,36.90
2018-10-09T21:33:19.859Z,37.93
2018-10-09T21:35:48.337Z,32.77
2018-10-09T21:38:16.836Z,42.70
2018-10-09T21:40:45.253Z,35.70
2018-10-09T21:43:13.712Z,36.20
2018-10-09T21:45:42.171Z,33.13
2018-10-09T21:48:10.692Z,38.40
2018-10-09T21:50:39.410Z,29.03
2018-10-09T21:53:07.856Z,29.03
2018-10-09T21:55:36.386Z,29.23
2018-10-09T21:58:04.889Z,27.13
2018-10-09T22:00:38.807Z,25.13
2018-10-09T22:03:07.398Z,27.53
2018-10-09T22:05:35.923Z,27.90
2018-10-09T22:08:04.399Z,36.13
2018-10-09T22:10:32.959Z,49.37
2018-10-09T22:13:01.557Z,38.87
2018-10-09T22:15:30.072Z,34.87
2018-10-09T22:17:58.592Z,30.83
2018-10-09T22:20:27.125Z,36.67
2018-10-09T22:22:55.631Z,34.67
2018-10-09T22:25:24.104Z,37.90
2018-10-09T22:27:52.550Z,25.97
2018-10-09T22:30:21.128Z,40.60
2018-10-09T22:32:49.627Z,49.03
2018-10-09T22:35:18.116Z,36.83
2018-10-09T22:37:46.499Z,26.67
2018-10-09T22:40:14.946Z,28.13
2018-10-09T22:42:43.473Z,26.30
2018-10-09T22:45:11.955Z,25.20
2018-10-09T22:47:40.587Z,27.10
2018-10-09T22:50:08.963Z,29.83
2018-10-09T22:52:37.381Z,28.30
2018-10-09T22:55:06.483Z,29.33
2018-10-09T22:57:34.893Z,29.17
2018-10-09T23:00:03.487Z,25.90
2018-10-09T23:02:31.984Z,26.70
2018-10-09T23:05:00.480Z,30.47
2018-10-09T23:07:28.940Z,30.93
2018-10-09T23:09:57.412Z,34.73
2018-10-09T23:12:25.800Z,30.40
2018-10-09T23:14:54.192Z,31.57
2018-10-09T23:17:22.643Z,32.97
2018-10-09T23:19:51.044Z,35.27
2018-10-09T23:22:19.491Z,32.10
2018-10-09T23:24:47.945Z,33.20
2018-10-09T23:27:16.379Z,31.30
2018-10-09T23:29:44.833Z,33.80
2018-10-09T23:32:13.312Z,41.20
2018-10-09T23:34:41.744Z,34.07
2018-10-09T23:37:10.270Z,37.83
2018-10-09T23:39:38.920Z,29.23
2018-10-09T23:42:07.371Z,34.00
2018-10-09T23:44:35.828Z,34.10
2018-10-09T23:47:04.284Z,34.93
2018-10-09T23:49:32.736Z,37.03
2018-10-09T23:52:01.312Z,27.50
2018-10-09T23:54:29.741Z,38.20
2018-10-09T23:56:58.208Z,47.57
2018-10-09T23:59:26.706Z,35.00
